createdAt,value
2023-12-13T00:00:33.043Z,99147.94
2023-12-13T00:02:59.832Z,99150.44
2023-12-13T00:05:26.672Z,99151.28
2023-12-13T00:07:53.635Z,99146.75
2023-12-13T00:10:20.595Z,99144.91
2023-12-13T00:12:47.415Z,99146.91
2023-12-13T00:15:14.196Z,99141.13
2023-12-13T00:17:41.070Z,99134.31
2023-12-13T00:20:08.084Z,99133.75
2023-12-13T00:22:35.039Z,99117.91
2023-12-13T00:25:01.906Z,99107.78
2023-12-13T00:27:28.789Z,99113.13
2023-12-13T00:29:55.576Z,99108.16
2023-12-13T00:32:22.452Z,99106.50
2023-12-13T00:34:49.677Z,99102.81
2023-12-13T00:37:16.738Z,99110.66
2023-12-13T00:39:43.721Z,99111.69
2023-12-13T00:42:10.519Z,99117.53
2023-12-13T00:44:37.294Z,99125.38
2023-12-13T00:47:04.086Z,99119.88
2023-12-13T00:49:30.886Z,99124.81
2023-12-13T00:51:57.731Z,99122.16
2023-12-13T00:54:24.503Z,99113.97
2023-12-13T00:56:51.311Z,99119.47
2023-12-13T00:59:18.081Z,99124.19
2023-12-13T01:01:44.999Z,99122.16
2023-12-13T01:04:12.072Z,99116.00
2023-12-13T01:06:38.997Z,99123.81
2023-12-13T01:09:05.833Z,99138.56
2023-12-13T01:11:32.617Z,99140.59
2023-12-13T01:13:59.475Z,99140.94
2023-12-13T01:16:26.368Z,99145.38
2023-12-13T01:18:53.265Z,99145.16
2023-12-13T01:21:20.183Z,99149.69
2023-12-13T01:23:47.011Z,99145.72
2023-12-13T01:26:13.826Z,99153.22
2023-12-13T01:28:40.753Z,99163.19
2023-12-13T01:31:07.749Z,99146.75
2023-12-13T01:33:34.692Z,99150.91
2023-12-13T01:36:01.539Z,99141.06
2023-12-13T01:38:28.381Z,99134.69
2023-12-13T01:41:11.212Z,99136.91
2023-12-13T01:43:41.015Z,99134.06
2023-12-13T01:46:07.916Z,99137.72
2023-12-13T01:48:34.923Z,99136.47
2023-12-13T01:51:01.844Z,99134.06
2023-12-13T01:53:28.646Z,99147.22
2023-12-13T01:55:55.664Z,99151.34
2023-12-13T01:58:22.596Z,99149.25
2023-12-13T02:00:49.569Z,99150.50
2023-12-13T02:03:16.397Z,99162.66
2023-12-13T02:05:43.365Z,99170.63
2023-12-13T02:08:10.185Z,99167.00
2023-12-13T02:10:36.987Z,99165.34
2023-12-13T02:13:03.814Z,99164.72
2023-12-13T02:15:30.652Z,99162.03
2023-12-13T02:17:57.531Z,99177.69
2023-12-13T02:20:24.403Z,99156.31
2023-12-13T02:22:51.227Z,99159.66
2023-12-13T02:25:18.185Z,99154.66
2023-12-13T02:27:45.013Z,99161.66
2023-12-13T02:30:11.872Z,99154.28
2023-12-13T02:32:38.729Z,99163.97
2023-12-13T02:35:05.542Z,99162.94
2023-12-13T02:37:32.522Z,99173.19
2023-12-13T02:39:59.501Z,99164.97
2023-12-13T02:42:26.316Z,99163.69
2023-12-13T02:44:53.145Z,99159.66
2023-12-13T02:47:19.968Z,99163.69
2023-12-13T02:49:46.768Z,99172.72
2023-12-13T02:52:13.594Z,99160.84
2023-12-13T02:54:40.376Z,99159.66
2023-12-13T02:57:07.193Z,99170.69
2023-12-13T02:59:34.007Z,99171.06
2023-12-13T03:02:00.929Z,99158.75
2023-12-13T03:04:27.834Z,99163.69
2023-12-13T03:06:54.722Z,99160.78
2023-12-13T03:09:21.544Z,99163.25
2023-12-13T03:11:48.311Z,99146.00
2023-12-13T03:14:15.094Z,99127.94
2023-12-13T03:16:41.940Z,99136.22
2023-12-13T03:19:08.859Z,99132.53
2023-12-13T03:21:35.775Z,99129.22
2023-12-13T03:24:02.576Z,99118.38
2023-12-13T03:26:29.361Z,99116.91
2023-12-13T03:28:56.190Z,99107.84
2023-12-13T03:31:23.011Z,99113.66
2023-12-13T03:33:49.877Z,99103.78
2023-12-13T03:36:16.680Z,99098.44
2023-12-13T03:38:43.489Z,99104.22
2023-12-13T03:41:10.286Z,99103.25
2023-12-13T03:43:37.212Z,99104.91
2023-12-13T03:46:04.100Z,99099.22
2023-12-13T03:48:30.975Z,99105.41
2023-12-13T03:50:57.769Z,99097.03
2023-12-13T03:53:24.583Z,99083.22
2023-12-13T03:55:51.446Z,99085.50
2023-12-13T03:58:18.341Z,99078.88
2023-12-13T04:17:11.462Z,99080.75
2023-12-13T04:19:38.258Z,99084.03
2023-12-13T04:22:05.134Z,99063.59
2023-12-13T04:24:31.908Z,99064.00
2023-12-13T04:26:58.703Z,99068.47
2023-12-13T04:29:25.476Z,99066.00
2023-12-13T04:31:52.500Z,99073.34
2023-12-13T04:34:19.551Z,99065.63
2023-12-13T04:36:46.393Z,99064.00
2023-12-13T04:39:13.221Z,99069.78
2023-12-13T04:41:40.023Z,99068.41
2023-12-13T04:44:06.826Z,99061.38
2023-12-13T04:46:33.646Z,99061.03
2023-12-13T04:49:00.598Z,99077.56
2023-12-13T04:51:27.415Z,99067.16
2023-12-13T04:53:54.188Z,99069.97
2023-12-13T04:56:21.013Z,99075.56
2023-12-13T04:58:47.900Z,99065.63
2023-12-13T05:01:14.889Z,99067.28
2023-12-13T05:03:43.749Z,99073.75
2023-12-13T05:06:11.793Z,99080.03
2023-12-13T05:08:38.593Z,99068.41
2023-12-13T05:11:05.439Z,99060.13
2023-12-13T05:13:32.321Z,99072.84
2023-12-13T05:15:59.118Z,99064.22
2023-12-13T05:18:25.899Z,99061.38
2023-12-13T05:20:52.673Z,99074.50
2023-12-13T05:23:19.457Z,99079.66
2023-12-13T05:25:46.272Z,99075.72
2023-12-13T05:28:13.123Z,99077.75
2023-12-13T05:30:39.980Z,99062.56
2023-12-13T05:33:06.924Z,99076.94
2023-12-13T05:35:33.730Z,99069.28
2023-12-13T05:38:00.596Z,99086.22
2023-12-13T05:40:27.486Z,99078.19
2023-12-13T05:42:54.288Z,99083.94
2023-12-13T05:45:21.076Z,99087.25
2023-12-13T05:47:47.930Z,99078.19
2023-12-13T05:50:14.998Z,99085.97
2023-12-13T05:52:41.844Z,99078.59
2023-12-13T05:55:08.660Z,99079.84
2023-12-13T05:57:35.858Z,99078.59
2023-12-13T06:00:03.063Z,99079.78
2023-12-13T06:02:29.913Z,99072.63
2023-12-13T06:04:59.395Z,99071.59
2023-12-13T06:07:27.719Z,99065.63
2023-12-13T06:09:54.600Z,99066.91
2023-12-13T06:12:21.386Z,99075.56
2023-12-13T06:14:48.175Z,99070.84
2023-12-13T06:17:14.984Z,99072.63
2023-12-13T06:19:41.803Z,99090.19
2023-12-13T06:22:08.635Z,99101.41
2023-12-13T06:24:35.410Z,99097.84
2023-12-13T06:27:02.214Z,99090.31
2023-12-13T06:29:29.032Z,99087.16
2023-12-13T06:31:55.938Z,99078.69
2023-12-13T06:34:22.755Z,99073.88
2023-12-13T06:36:49.629Z,99071.09
2023-12-13T06:39:16.400Z,99064.47
2023-12-13T06:41:43.220Z,99070.22
2023-12-13T06:44:10.039Z,99071.25
2023-12-13T06:46:36.857Z,99069.81
2023-12-13T06:49:03.806Z,99069.19
2023-12-13T06:51:30.672Z,99063.59
2023-12-13T06:54:00.141Z,99074.28
2023-12-13T06:56:27.184Z,99076.78
2023-12-13T06:58:54.159Z,99087.47
2023-12-13T07:01:21.083Z,99100.63
2023-12-13T07:03:47.960Z,99105.16
2023-12-13T07:06:14.820Z,99122.84
2023-12-13T07:08:41.637Z,99135.75
2023-12-13T07:11:08.416Z,99141.75
2023-12-13T07:13:35.388Z,99173.16
2023-12-13T07:16:02.250Z,99173.81
2023-12-13T07:18:29.057Z,99167.19
2023-12-13T07:20:55.856Z,99158.16
2023-12-13T07:23:22.630Z,99147.09
2023-12-13T07:25:49.427Z,99125.72
2023-12-13T07:28:16.267Z,99118.31
2023-12-13T07:30:48.683Z,99117.03
2023-12-13T07:33:23.942Z,99112.53
2023-12-13T07:35:50.762Z,99109.03
2023-12-13T07:38:17.588Z,99104.34
2023-12-13T07:40:44.418Z,99103.31
2023-12-13T07:43:11.223Z,99100.63
2023-12-13T07:45:38.033Z,99110.50
2023-12-13T07:48:14.078Z,99124.03
2023-12-13T07:50:48.746Z,99126.06
2023-12-13T07:53:15.701Z,99127.38
2023-12-13T07:55:42.519Z,99138.06
2023-12-13T07:58:09.336Z,99121.81
2023-12-13T08:00:36.150Z,99119.97
2023-12-13T08:03:03.091Z,99121.63
2023-12-13T08:05:29.978Z,99118.31
2023-12-13T08:07:56.852Z,99127.16
2023-12-13T08:10:23.633Z,99158.22
2023-12-13T08:12:51.733Z,99141.34
2023-12-13T08:15:19.023Z,99147.34
2023-12-13T08:17:45.816Z,99148.00
2023-12-13T08:20:12.729Z,99151.66
2023-12-13T08:22:39.560Z,99167.69
2023-12-13T08:25:06.414Z,99171.03
2023-12-13T08:27:33.484Z,99166.44
2023-12-13T08:30:00.373Z,99178.38
2023-12-13T08:32:27.562Z,99187.06
2023-12-13T08:34:54.458Z,99174.50
2023-12-13T08:37:21.328Z,99179.66
2023-12-13T08:39:48.212Z,99179.66
2023-12-13T08:42:14.999Z,99160.97
2023-12-13T08:44:41.782Z,99157.09
2023-12-13T08:47:08.602Z,99161.59
2023-12-13T08:49:35.448Z,99165.28
2023-12-13T08:52:02.261Z,99153.75
2023-12-13T08:54:29.070Z,99149.44
2023-12-13T08:56:55.981Z,99167.34
2023-12-13T08:59:22.817Z,99176.72
2023-12-13T09:01:50.099Z,99186.78
2023-12-13T09:04:17.063Z,99184.50
2023-12-13T09:06:44.092Z,99181.19
2023-12-13T09:09:10.889Z,99183.22
2023-12-13T09:11:37.734Z,99181.19
2023-12-13T09:14:04.541Z,99184.50
2023-12-13T09:16:31.382Z,99185.59
2023-12-13T09:18:58.285Z,99176.56
2023-12-13T09:21:25.101Z,99169.56
2023-12-13T09:23:51.926Z,99178.97
2023-12-13T09:26:18.736Z,99178.97
2023-12-13T09:28:45.591Z,99178.59
2023-12-13T09:31:12.440Z,99168.28
2023-12-13T09:33:39.354Z,99178.13
2023-12-13T09:36:06.249Z,99180.63
2023-12-13T09:38:33.073Z,99185.34
2023-12-13T09:41:00.030Z,99193.72
2023-12-13T09:43:27.019Z,99201.47
2023-12-13T09:45:53.803Z,99202.28
2023-12-13T09:48:20.642Z,99198.53
2023-12-13T09:50:47.491Z,99208.88
2023-12-13T09:53:14.367Z,99218.63
2023-12-13T09:55:41.176Z,99220.91
2023-12-13T09:58:08.014Z,99219.00
2023-12-13T10:00:34.876Z,99225.34
2023-12-13T10:03:01.676Z,99222.03
2023-12-13T10:05:28.547Z,99228.03
2023-12-13T10:07:55.366Z,99229.41
2023-12-13T10:10:22.209Z,99227.56
2023-12-13T10:12:49.019Z,99227.50
2023-12-13T10:15:15.837Z,99231.19
2023-12-13T10:17:43.714Z,99239.53
2023-12-13T10:20:10.950Z,99256.41
2023-12-13T10:22:38.248Z,99250.88
2023-12-13T10:25:05.130Z,99259.16
2023-12-13T10:27:32.137Z,99263.22
2023-12-13T10:29:59.075Z,99258.50
2023-12-13T10:32:25.896Z,99251.53
2023-12-13T10:34:52.848Z,99254.19
2023-12-13T10:37:19.757Z,99239.91
2023-12-13T10:39:46.582Z,99232.28
2023-12-13T10:42:13.366Z,99242.22
2023-12-13T10:44:40.164Z,99237.72
2023-12-13T10:47:06.936Z,99241.56
2023-12-13T10:49:33.796Z,99265.22
2023-12-13T10:52:00.605Z,99262.09
2023-12-13T10:54:27.374Z,99262.63
2023-12-13T10:56:54.244Z,99286.69
2023-12-13T10:59:21.036Z,99257.31
2023-12-13T11:01:47.894Z,99250.69
2023-12-13T11:04:14.779Z,99259.00
2023-12-13T11:06:41.626Z,99259.25
2023-12-13T11:09:08.431Z,99269.28
2023-12-13T11:11:35.195Z,99277.59
2023-12-13T11:14:02.031Z,99267.97
2023-12-13T11:16:28.943Z,99261.00
2023-12-13T11:18:56.223Z,99253.34
2023-12-13T11:21:23.550Z,99260.44
2023-12-13T11:23:50.326Z,99260.06
2023-12-13T11:26:17.132Z,99263.50
2023-12-13T11:28:43.963Z,99267.53
2023-12-13T11:31:12.469Z,99260.22
2023-12-13T11:33:40.511Z,99264.03
2023-12-13T11:36:07.332Z,99268.63
2023-12-13T11:38:34.136Z,99247.81
2023-12-13T11:41:00.945Z,99233.75
2023-12-13T11:43:27.790Z,99251.88
2023-12-13T11:45:54.677Z,99241.66
2023-12-13T11:48:21.606Z,99234.28
2023-12-13T11:50:48.494Z,99233.94
2023-12-13T11:53:15.293Z,99237.25
2023-12-13T11:55:42.137Z,99242.88
2023-12-13T11:58:08.945Z,99225.84
2023-12-13T12:00:35.773Z,99218.06
2023-12-13T12:03:02.571Z,99224.72
2023-12-13T12:05:29.612Z,99236.78
2023-12-13T12:07:56.651Z,99226.91
2023-12-13T12:10:23.498Z,99237.50
2023-12-13T12:12:50.315Z,99246.09
2023-12-13T12:15:17.097Z,99242.78
2023-12-13T12:17:43.968Z,99242.78
2023-12-13T12:20:10.867Z,99241.09
2023-12-13T12:22:37.791Z,99246.44
2023-12-13T12:25:04.653Z,99241.75
2023-12-13T12:27:31.636Z,99244.78
2023-12-13T12:29:58.689Z,99242.94
2023-12-13T12:32:25.507Z,99235.75
2023-12-13T12:34:52.400Z,99226.38
2023-12-13T12:37:19.360Z,99233.38
2023-12-13T12:39:46.181Z,99235.00
2023-12-13T12:42:12.974Z,99235.41
2023-12-13T12:44:39.836Z,99229.66
2023-12-13T12:47:06.899Z,99222.00
2023-12-13T12:49:33.858Z,99223.13
2023-12-13T12:52:00.677Z,99232.97
2023-12-13T12:54:27.517Z,99222.28
2023-12-13T12:56:54.333Z,99220.47
2023-12-13T12:59:21.188Z,99227.28
2023-12-13T13:01:48.061Z,99228.56
2023-12-13T13:04:15.058Z,99231.50
2023-12-13T13:06:42.054Z,99235.56
2023-12-13T13:09:08.864Z,99234.19
2023-12-13T13:11:35.656Z,99230.88
2023-12-13T13:14:03.809Z,99229.47
2023-12-13T13:16:31.303Z,99240.53
2023-12-13T13:18:58.117Z,99244.22
2023-12-13T13:21:25.008Z,99233.16
2023-12-13T13:23:51.801Z,99231.50
2023-12-13T13:26:18.569Z,99238.50
2023-12-13T13:28:45.498Z,99223.31
2023-12-13T13:31:12.353Z,99230.75
2023-12-13T13:33:39.352Z,99225.78
2023-12-13T13:36:07.974Z,99222.13
2023-12-13T13:38:34.876Z,99234.81
2023-12-13T13:41:01.728Z,99227.81
2023-12-13T13:43:28.566Z,99227.81
2023-12-13T13:45:55.351Z,99227.47
2023-12-13T13:48:22.220Z,99224.13
2023-12-13T13:50:49.032Z,99229.13
2023-12-13T13:53:15.865Z,99229.13
2023-12-13T13:55:42.721Z,99235.72
2023-12-13T13:58:09.589Z,99226.06
2023-12-13T14:00:36.388Z,99221.34
2023-12-13T14:03:03.237Z,99232.69
2023-12-13T14:05:30.449Z,99226.69
2023-12-13T14:07:57.340Z,99216.00
2023-12-13T14:10:24.223Z,99215.53
2023-12-13T14:12:51.027Z,99220.53
2023-12-13T14:15:17.813Z,99227.13
2023-12-13T14:17:44.720Z,99233.31
2023-12-13T14:20:11.689Z,99240.72
2023-12-13T14:22:38.594Z,99244.00
2023-12-13T14:25:05.466Z,99249.34
2023-12-13T14:27:32.469Z,99240.34
2023-12-13T14:29:59.396Z,99222.28
2023-12-13T14:32:26.194Z,99227.63
2023-12-13T14:34:53.137Z,99235.66
2023-12-13T14:37:20.049Z,99257.03
2023-12-13T14:39:46.921Z,99250.66
2023-12-13T14:42:13.715Z,99260.53
2023-12-13T14:44:40.515Z,99247.97
2023-12-13T14:47:07.328Z,99259.34
2023-12-13T14:49:34.294Z,99259.97
2023-12-13T14:52:01.230Z,99249.91
2023-12-13T14:54:28.062Z,99266.78
2023-12-13T14:56:54.964Z,99261.44
2023-12-13T14:59:21.800Z,99274.59
2023-12-13T15:01:48.607Z,99274.59
2023-12-13T15:04:15.441Z,99276.28
2023-12-13T15:06:42.251Z,99302.16
2023-12-13T15:09:09.046Z,99309.00
2023-12-13T15:11:35.839Z,99307.97
2023-12-13T15:14:02.715Z,99314.97
2023-12-13T15:16:29.566Z,99306.78
2023-12-13T15:18:56.443Z,99307.59
2023-12-13T15:21:23.255Z,99319.13
2023-12-13T15:23:50.109Z,99314.59
2023-12-13T15:26:17.029Z,99326.31
2023-12-13T15:28:44.121Z,99328.63
2023-12-13T15:31:10.982Z,99330.28
2023-12-13T15:33:37.899Z,99318.56
2023-12-13T15:36:04.695Z,99322.88
2023-12-13T15:38:31.514Z,99351.66
2023-12-13T15:40:58.367Z,99359.31
2023-12-13T15:43:25.265Z,99352.28
2023-12-13T15:45:52.161Z,99344.28
2023-12-13T15:48:19.084Z,99336.88
2023-12-13T15:50:45.948Z,99323.34
2023-12-13T15:53:12.801Z,99325.00
2023-12-13T15:55:39.626Z,99316.81
2023-12-13T15:58:06.565Z,99320.50
2023-12-13T16:00:33.360Z,99332.84
2023-12-13T16:03:00.219Z,99337.16
2023-12-13T16:05:27.090Z,99333.47
2023-12-13T16:07:53.965Z,99352.19
2023-12-13T16:10:21.319Z,99342.97
2023-12-13T16:12:49.841Z,99330.41
2023-12-13T16:15:16.933Z,99341.09
2023-12-13T16:17:43.779Z,99355.16
2023-12-13T16:20:10.760Z,99369.16
2023-12-13T16:22:37.951Z,99370.16
2023-12-13T16:25:04.972Z,99372.84
2023-12-13T16:27:31.859Z,99362.16
2023-12-13T16:29:58.640Z,99356.41
2023-12-13T16:32:25.496Z,99367.94
2023-12-13T16:34:52.389Z,99367.09
2023-12-13T16:37:19.201Z,99356.41
2023-12-13T16:39:46.013Z,99362.97
2023-12-13T16:42:13.059Z,99366.47
2023-12-13T16:44:39.864Z,99364.19
2023-12-13T16:47:06.713Z,99367.84
2023-12-13T16:49:33.595Z,99358.00
2023-12-13T16:52:00.422Z,99363.53
2023-12-13T16:54:27.231Z,99366.97
2023-12-13T16:56:54.043Z,99368.97
2023-12-13T16:59:20.850Z,99367.69
2023-12-13T17:01:47.676Z,99369.75
2023-12-13T17:04:14.508Z,99376.75
2023-12-13T17:06:41.375Z,99376.75
2023-12-13T17:09:08.256Z,99375.44
2023-12-13T17:11:35.123Z,99379.13
2023-12-13T17:14:01.955Z,99393.06
2023-12-13T17:16:28.990Z,99386.50
2023-12-13T17:18:55.846Z,99392.59
2023-12-13T17:21:22.653Z,99391.41
2023-12-13T17:23:49.436Z,99396.28
2023-12-13T17:26:16.225Z,99400.31
2023-12-13T17:28:43.028Z,99393.66
2023-12-13T17:31:09.888Z,99404.34
2023-12-13T17:33:36.782Z,99404.16
2023-12-13T17:36:03.692Z,99401.03
2023-12-13T17:38:30.542Z,99413.38
2023-12-13T17:40:57.355Z,99414.97
2023-12-13T17:43:24.206Z,99422.06
2023-12-13T17:45:51.007Z,99425.38
2023-12-13T17:48:17.860Z,99431.44
2023-12-13T17:50:44.854Z,99430.22
2023-12-13T17:53:11.826Z,99423.72
2023-12-13T17:55:38.753Z,99422.06
2023-12-13T17:58:05.558Z,99433.41
2023-12-13T18:00:32.403Z,99437.72
2023-12-13T18:02:59.222Z,99451.78
2023-12-13T18:05:26.077Z,99447.69
2023-12-13T18:07:53.111Z,99436.00
2023-12-13T18:10:20.005Z,99434.00
2023-12-13T18:12:46.845Z,99441.63
2023-12-13T18:15:13.647Z,99439.97
2023-12-13T18:17:40.517Z,99446.59
2023-12-13T18:20:07.510Z,99439.25
2023-12-13T18:22:34.670Z,99458.22
2023-12-13T18:25:01.717Z,99457.88
2023-12-13T18:27:28.558Z,99454.19
2023-12-13T18:29:55.348Z,99459.34
2023-12-13T18:32:22.300Z,99465.97
2023-12-13T18:34:49.280Z,99461.53
2023-12-13T18:37:16.148Z,99464.22
2023-12-13T18:39:42.971Z,99464.69
2023-12-13T18:42:09.820Z,99476.19
2023-12-13T18:44:36.635Z,99479.34
2023-12-13T18:47:03.552Z,99505.06
2023-12-13T18:49:30.644Z,99494.91
2023-12-13T18:51:57.706Z,99503.41
2023-12-13T18:54:24.564Z,99506.06
2023-12-13T18:56:51.392Z,99505.44
2023-12-13T18:59:18.210Z,99511.81
2023-12-13T19:01:45.029Z,99511.16
2023-12-13T19:04:11.848Z,99523.88
2023-12-13T19:06:38.650Z,99525.91
2023-12-13T19:09:05.489Z,99522.94
2023-12-13T19:11:32.269Z,99514.28
2023-12-13T19:13:59.671Z,99521.66
2023-12-13T19:16:27.205Z,99519.16
2023-12-13T19:18:54.110Z,99517.97
2023-12-13T19:21:20.952Z,99521.38
2023-12-13T19:23:47.745Z,99518.69
2023-12-13T19:26:14.535Z,99545.81
2023-12-13T19:28:41.320Z,99538.81
2023-12-13T19:31:08.137Z,99538.31
2023-12-13T19:33:34.980Z,99528.44
2023-12-13T19:36:01.832Z,99537.88
2023-12-13T19:38:28.715Z,99538.25
2023-12-13T19:40:55.638Z,99539.53
2023-12-13T19:43:22.441Z,99541.56
2023-12-13T19:45:49.217Z,99543.94
2023-12-13T19:48:16.070Z,99544.28
2023-12-13T19:50:42.925Z,99564.34
2023-12-13T19:53:09.876Z,99555.34
2023-12-13T19:55:36.750Z,99542.97
2023-12-13T19:58:03.556Z,99531.78
2023-12-13T20:00:30.380Z,99538.31
2023-12-13T20:02:57.181Z,99546.66
2023-12-13T20:05:24.116Z,99555.03
2023-12-13T20:07:51.081Z,99553.06
2023-12-13T20:10:17.928Z,99561.44
2023-12-13T20:12:44.785Z,99570.72
2023-12-13T20:15:11.581Z,99568.72
2023-12-13T20:17:38.705Z,99569.47
2023-12-13T20:20:05.824Z,99573.41
2023-12-13T20:22:32.779Z,99575.47
2023-12-13T20:24:59.619Z,99582.44
2023-12-13T20:27:26.460Z,99576.47
2023-12-13T20:29:53.285Z,99578.75
2023-12-13T20:32:20.162Z,99579.91
2023-12-13T20:34:46.969Z,99581.72
2023-12-13T20:37:13.827Z,99594.88
2023-12-13T20:39:40.673Z,99591.41
2023-12-13T20:42:07.453Z,99589.91
2023-12-13T20:44:34.325Z,99589.06
2023-12-13T20:47:01.279Z,99582.66
2023-12-13T20:49:28.219Z,99587.25
2023-12-13T20:51:55.081Z,99598.03
2023-12-13T20:54:21.876Z,99597.75
2023-12-13T20:56:48.736Z,99631.81
2023-12-13T20:59:15.589Z,99621.50
2023-12-13T21:01:42.412Z,99621.16
2023-12-13T21:04:09.322Z,99617.31
2023-12-13T21:06:36.113Z,99622.53
2023-12-13T21:09:02.961Z,99626.56
2023-12-13T21:11:29.764Z,99634.94
2023-12-13T21:13:56.625Z,99639.28
2023-12-13T21:16:23.485Z,99641.31
2023-12-13T21:18:50.345Z,99638.63
2023-12-13T21:21:17.258Z,99648.31
2023-12-13T21:23:44.056Z,99645.31
2023-12-13T21:26:10.934Z,99654.66
2023-12-13T21:28:37.816Z,99651.50
2023-12-13T21:31:04.841Z,99656.38
2023-12-13T21:33:31.731Z,99660.53
2023-12-13T21:35:58.572Z,99670.38
2023-12-13T21:38:25.402Z,99673.06
2023-12-13T21:40:52.244Z,99692.13
2023-12-13T21:43:19.080Z,99695.44
2023-12-13T21:45:45.885Z,99696.28
2023-12-13T21:48:12.782Z,99686.78
2023-12-13T21:50:39.594Z,99692.59
2023-12-13T21:53:06.448Z,99690.09
2023-12-13T21:55:33.345Z,99699.13
2023-12-13T21:58:00.237Z,99690.09
2023-12-13T22:00:27.175Z,99702.81
2023-12-13T22:02:54.030Z,99705.47
2023-12-13T22:05:20.850Z,99703.81
2023-12-13T22:07:47.654Z,99703.50
2023-12-13T22:10:14.551Z,99701.47
2023-12-13T22:12:41.434Z,99704.34
2023-12-13T22:15:08.237Z,99701.00
2023-12-13T22:17:35.294Z,99710.34
2023-12-13T22:20:02.312Z,99717.84
2023-12-13T22:22:29.278Z,99713.38
2023-12-13T22:24:56.123Z,99717.50
2023-12-13T22:27:22.967Z,99712.50
2023-12-13T22:29:49.786Z,99710.84
2023-12-13T22:32:16.637Z,99720.69
2023-12-13T22:34:43.555Z,99711.88
2023-12-13T22:37:10.355Z,99715.22
2023-12-13T22:39:37.149Z,99713.22
2023-12-13T22:42:03.967Z,99730.56
2023-12-13T22:44:30.794Z,99728.41
2023-12-13T22:46:58.070Z,99728.41
2023-12-13T22:49:24.947Z,99741.94
2023-12-13T22:52:18.641Z,99742.28
2023-12-13T22:54:38.551Z,99750.97
2023-12-13T22:57:05.366Z,99750.97
2023-12-13T22:59:32.160Z,99757.97
2023-12-13T23:02:00.578Z,99765.66
2023-12-13T23:04:29.217Z,99761.97
2023-12-13T23:06:56.056Z,99756.97
2023-12-13T23:09:22.861Z,99781.00
2023-12-13T23:11:49.660Z,99787.38
2023-12-13T23:14:16.477Z,99818.75
2023-12-13T23:16:43.415Z,99834.78
2023-12-13T23:19:10.415Z,99840.78
2023-12-13T23:21:37.302Z,99824.75
2023-12-13T23:24:04.145Z,99846.78
2023-12-13T23:26:30.939Z,99845.63
2023-12-13T23:28:57.864Z,99858.97
2023-12-13T23:31:30.025Z,99859.47
2023-12-13T23:34:03.360Z,99865.81
2023-12-13T23:36:30.235Z,99861.16
2023-12-13T23:38:57.081Z,99865.66
2023-12-13T23:41:23.852Z,99867.50
2023-12-13T23:43:50.706Z,99866.50
2023-12-13T23:46:17.576Z,99886.19
2023-12-13T23:48:44.395Z,99879.19
2023-12-13T23:51:11.298Z,99892.84
2023-12-13T23:53:38.118Z,99910.06
2023-12-13T23:56:05.073Z,99917.41
2023-12-13T23:58:31.896Z,99924.59
